Washington, DC (20024)

4:04 AM EDT on September 02, 2015 (GMT -0400)
NOS_NWLON | | Change Station
CLOSE
Current Station
Personal Weather Station
Location: Washington, DC
Elevation: 0 ft
Nearby Weather Stations

Elev 0 ft 38.87 °N, 77.02 °W | Updated 34 minutes ago

Mostly Cloudy
Mostly Cloudy
0.0 °F
Feels Like 0.0 °F
N
1.0
Wind Variable Wind from North
Gusts 2.0 mph

Today
High -- | Low -- °F
--% Chance of Precip.
Yesterday
High -- | Low -- °F
Precip. -- in
6:37 AM 7:37 PM
Waning Gibbous, 82% visible
Pressure 30.03 in
Visibility 10.0 miles
Clouds Few 6500 ft
Scattered Clouds 9000 ft
Mostly Cloudy 25000 ft
Dew Point Not available.
Humidity Not available.
Rainfall in
Snow Depth Not available.
UV 0 out of 12
Pollen 10.60 out of 12
Air Quality Not available.
Flu Activity Not available.
METAR KDCA 020752Z 00000KT 10SM FEW065 SCT090 BKN250 26/23 A3003 RMK AO2 SLP168 T02560228
Pressure 30.03 in
Visibility 10.0 miles
Clouds Few 6500 ft
Scattered Clouds 9000 ft
Mostly Cloudy 25000 ft
Dew Point Not available.
Humidity Not available.
Rainfall in
Snow Depth Not available.
UV 0 out of 12
Pollen 10.60 out of 12
Air Quality Not available.
Flu Activity Not available.
METAR KDCA 020752Z 00000KT 10SM FEW065 SCT090 BKN250 26/23 A3003 RMK AO2 SLP168 T02560228

10-Day Weather Forecast

×

Almanac

Astronomy

Sep. 02, 2015 Rise Set
Actual Time
Civil Twilight
Nautical Twilight
Astronomical Twilight
Moon
Length of Visible Light
Length of Day
Tomorrow will be .
, % of the Moon is Illuminated

Today's Extremes

State Highs State Lows

Community

WunderPhotos

Upload Photos

1,851,727 photos uploaded!

WunderBlogs® & News

Nearby

Air Quality

  Air Quality AQ Index Pollutant
Not available.

Snow Depth

Station Depth Elevation

Earthquake Activity

City Distance Mag. Time & Date
Minimum magnitude displayed is 2.5.

Coastal Water Temperatures

Place Temperature

Stations

Nearby Weather Stations

Station Location Temp. Windchill Dew Point Humidity Wind Precip. Elev Updated Type